Time;durP1;ratioP1;P1;durP2;ratioP2;P2;SDS_P1;SDS_P2;PMS_P1;PMS_P2;Temp;Humidity;BMP_temperature;BMP_pressure;BME280_temperature;BME280_humidity;BME280_pressure;Samples;Min_cycle;Max_cycle;Signal;HPM_P1;HPM_P2
2021/10/11 00:01:18;;;;;;;;;;;;;;;0.07;100.00;101683.78;5072854;28;20027;-69
2021/10/11 00:03:44;;;;;;;;;;;;;;;0.05;100.00;101682.91;5072689;28;20458;-70
2021/10/11 00:06:10;;;;;;;;;;;;;;;0.06;100.00;101681.16;5072773;28;20370;-70
2021/10/11 00:08:38;;;;;;;;;;;;;;;-0.02;100.00;101686.66;5073009;28;19979;-70
2021/10/11 00:11:04;;;;;;;;;;;;;;;-0.08;100.00;101674.31;5054892;28;19931;-70
2021/10/11 00:13:30;;;;;;;;;;;;;;;-0.09;100.00;101666.34;5072698;28;19928;-70
2021/10/11 00:15:57;;;;;;;;;;;;;;;-0.13;100.00;101664.63;5072524;28;20043;-69
2021/10/11 00:18:23;;;;;;;;;;;;;;;-0.19;100.00;101668.31;5072341;28;20387;-69
2021/10/11 00:20:49;;;;;;;;;;;;;;;-0.22;100.00;101676.41;5072492;28;20328;-69
2021/10/11 00:23:16;;;;;;;;;;;;;;;-0.27;100.00;101672.94;5072482;28;19931;-70
2021/10/11 00:25:43;;;;;;;;;;;;;;;-0.32;100.00;101670.38;5072666;28;19950;-70
2021/10/11 00:28:09;;;;;;;;;;;;;;;-0.37;100.00;101658.94;5072153;28;19931;-69
2021/10/11 00:30:36;;;;;;;;;;;;;;;-0.39;100.00;101660.72;5072348;28;20028;-69
2021/10/11 00:33:03;;;;;;;;;;;;;;;-0.39;100.00;101669.63;5072215;28;19931;-69
2021/10/11 00:35:30;;;;;;;;;;;;;;;-0.42;100.00;101668.81;5072060;28;19925;-70
2021/10/11 00:37:56;;;;;;;;;;;;;;;-0.40;100.00;101667.88;5072049;28;20368;-69
2021/10/11 00:40:22;;;;;;;;;;;;;;;-0.42;100.00;101667.00;5072088;28;19959;-69
2021/10/11 00:42:50;;;;;;;;;;;;;;;-0.40;100.00;101664.31;5071040;28;20018;-70
2021/10/11 00:45:16;;;;;;;;;;;;;;;-0.45;100.00;101664.41;5072010;28;19951;-69
2021/10/11 00:47:42;;;;;;;;;;;;;;;-0.56;100.00;101666.41;5071882;28;20454;-69
2021/10/11 00:50:09;;;;;;;;;;;;;;;-0.56;100.00;101661.97;5072101;28;19968;-69
2021/10/11 00:52:35;;;;;;;;;;;;;;;-0.60;100.00;101659.38;5071466;28;19978;-69
2021/10/11 00:55:02;;;;;;;;;;;;;;;-0.61;100.00;101657.63;5072171;28;19929;-69
2021/10/11 00:57:28;;;;;;;;;;;;;;;-0.58;100.00;101652.22;5071742;28;19930;-69
2021/10/11 00:59:56;;;;;;;;;;;;;;;-0.62;100.00;101646.06;5053801;28;20303;-69
2021/10/11 01:02:22;;;;;;;;;;;;;;;-0.65;100.00;101631.94;5071552;28;19928;-69
2021/10/11 01:04:49;;;;;;;;;;;;;;;-0.72;100.00;101625.81;5071731;28;19924;-69
2021/10/11 01:07:15;;;;;;;;;;;;;;;-0.75;100.00;101624.13;5071692;28;19954;-70
2021/10/11 01:09:41;;;;;;;;;;;;;;;-0.70;100.00;101616.00;5071332;28;20015;-69
2021/10/11 01:12:08;;;;;;;;;;;;;;;-0.65;100.00;101614.13;5071536;28;19934;-70
2021/10/11 01:14:34;;;;;;;;;;;;;;;-0.66;100.00;101608.84;5071371;28;20299;-70
2021/10/11 01:17:02;;;;;;;;;;;;;;;-0.72;100.00;101602.72;5071378;28;20019;-70
2021/10/11 01:19:28;;;;;;;;;;;;;;;-0.73;100.00;101600.09;5071446;28;19987;-70
2021/10/11 01:21:56;;;;;;;;;;;;;;;-0.78;100.00;101600.16;5071443;28;19928;-69
2021/10/11 01:24:22;;;;;;;;;;;;;;;-0.80;100.00;101596.66;5071481;28;19928;-70
2021/10/11 01:26:48;;;;;;;;;;;;;;;-0.78;100.00;101586.81;5070482;28;19928;-70
2021/10/11 01:29:16;;;;;;;;;;;;;;;-0.70;100.00;101592.00;5071340;28;20407;-70
2021/10/11 01:31:42;;;;;;;;;;;;;;;-0.72;100.00;101581.38;5071210;28;19935;-70
2021/10/11 01:34:09;;;;;;;;;;;;;;;-0.66;100.00;101584.84;5071256;28;19929;-70
2021/10/11 01:36:35;;;;;;;;;;;;;;;-0.71;100.00;101576.91;5071204;28;20015;-69
2021/10/11 01:39:04;;;;;;;;;;;;;;;-0.69;100.00;101569.78;5071194;28;20113;-70
2021/10/11 01:41:31;;;;;;;;;;;;;;;-0.74;100.00;101558.31;5071294;28;19931;-70
2021/10/11 01:43:57;;;;;;;;;;;;;;;-0.73;100.00;101554.75;5070826;28;20361;-70
2021/10/11 01:46:23;;;;;;;;;;;;;;;-0.71;100.00;101545.81;5053108;28;19967;-70
2021/10/11 01:48:50;;;;;;;;;;;;;;;-0.71;100.00;101548.47;5071078;28;20027;-69
2021/10/11 01:51:16;;;;;;;;;;;;;;;-0.66;100.00;101561.69;5071175;28;20011;-70
2021/10/11 01:53:42;;;;;;;;;;;;;;;-0.58;100.00;101562.41;5070654;28;20334;-70
2021/10/11 01:56:10;;;;;;;;;;;;;;;-0.54;100.00;101555.22;5070977;28;20306;-70
2021/10/11 01:58:36;;;;;;;;;;;;;;;-0.45;100.00;101546.16;5070960;28;19928;-70
2021/10/11 02:01:03;;;;;;;;;;;;;;;-0.38;100.00;101537.09;5071014;28;20479;-70
2021/10/11 02:03:29;;;;;;;;;;;;;;;-0.29;100.00;101520.88;5070723;28;20463;-70
2021/10/11 02:05:56;;;;;;;;;;;;;;;-0.19;100.00;101517.09;5070678;28;19924;-70
2021/10/11 02:08:22;;;;;;;;;;;;;;;-0.07;100.00;101510.56;5071039;28;20330;-70
2021/10/11 02:10:48;;;;;;;;;;;;;;;0.05;100.00;101497.81;5070851;28;20023;-70
2021/10/11 02:13:16;;;;;;;;;;;;;;;0.19;100.00;101497.47;5070750;28;20115;-70
2021/10/11 02:15:42;;;;;;;;;;;;;;;0.26;100.00;101504.44;5070861;28;20023;-70
2021/10/11 02:18:08;;;;;;;;;;;;;;;0.36;100.00;101505.94;5070847;28;20027;-70
2021/10/11 02:20:35;;;;;;;;;;;;;;;0.49;100.00;101519.84;5070822;28;20019;-70
2021/10/11 02:23:01;;;;;;;;;;;;;;;0.60;100.00;101516.88;5070461;28;19931;-70
2021/10/11 02:25:28;;;;;;;;;;;;;;;0.65;100.00;101514.97;5070787;28;19976;-70
2021/10/11 02:27:54;;;;;;;;;;;;;;;0.72;100.00;101511.22;5070661;28;20015;-70
2021/10/11 02:30:21;;;;;;;;;;;;;;;0.75;100.00;101499.53;5070572;28;20463;-70
2021/10/11 02:32:48;;;;;;;;;;;;;;;0.75;100.00;101500.44;5070561;28;20016;-70
2021/10/11 02:35:16;;;;;;;;;;;;;;;0.76;100.00;101496.84;5070678;28;20372;-70
2021/10/11 02:37:43;;;;;;;;;;;;;;;0.78;100.00;101494.13;5070612;28;19967;-69
2021/10/11 02:40:10;;;;;;;;;;;;;;;0.79;100.00;101494.06;5070603;28;19932;-70
2021/10/11 02:42:36;;;;;;;;;;;;;;;0.85;100.00;101500.19;5070119;28;19956;-70
2021/10/11 02:45:03;;;;;;;;;;;;;;;0.90;100.00;101498.25;5052708;28;19931;-70
2021/10/11 02:47:31;;;;;;;;;;;;;;;0.93;100.00;101492.81;5070435;28;19952;-70
2021/10/11 02:49:57;;;;;;;;;;;;;;;1.02;100.00;101497.00;5070537;28;20023;-70
2021/10/11 02:52:27;;;;;;;;;;;;;;;1.10;100.00;101495.88;5070650;28;20380;-70
2021/10/11 02:54:54;;;;;;;;;;;;;;;1.16;100.00;101493.03;5070365;28;20334;-70
2021/10/11 02:57:20;;;;;;;;;;;;;;;1.21;100.00;101489.31;5070437;28;19970;-69
2021/10/11 02:59:46;;;;;;;;;;;;;;;1.29;100.00;101489.97;5070318;28;20018;-70
2021/10/11 03:02:13;;;;;;;;;;;;;;;1.38;100.00;101478.09;5070356;28;19928;-70
2021/10/11 03:04:40;;;;;;;;;;;;;;;1.44;100.00;101478.81;5070357;28;19963;-70
2021/10/11 03:07:06;;;;;;;;;;;;;;;1.47;100.00;101472.47;5074046;28;20027;-69
2021/10/11 03:09:33;;;;;;;;;;;;;;;1.55;100.00;101474.91;5073928;28;20443;-70
2021/10/11 03:11:59;;;;;;;;;;;;;;;1.58;100.00;101466.78;5073929;28;19928;-70
2021/10/11 03:14:25;;;;;;;;;;;;;;;1.61;100.00;101470.22;5073788;28;20031;-70
2021/10/11 03:16:52;;;;;;;;;;;;;;;1.65;100.00;101469.19;5073519;28;19956;-70
2021/10/11 03:19:18;;;;;;;;;;;;;;;1.73;100.00;101460.06;5073394;28;19925;-69
2021/10/11 03:21:45;;;;;;;;;;;;;;;1.76;100.00;101463.50;5073511;28;20356;-70
2021/10/11 03:24:12;;;;;;;;;;;;;;;1.80;100.00;101459.81;5073621;28;20308;-70
2021/10/11 03:26:38;;;;;;;;;;;;;;;1.84;100.00;101450.75;5073364;28;20027;-70
2021/10/11 03:29:04;;;;;;;;;;;;;;;1.89;100.00;101442.56;5073389;28;20350;-70
2021/10/11 03:31:30;;;;;;;;;;;;;;;1.98;100.00;101444.06;5073169;28;20028;-70
2021/10/11 03:33:57;;;;;;;;;;;;;;;2.05;100.00;101432.19;5073221;28;20215;-70
2021/10/11 03:36:23;;;;;;;;;;;;;;;2.05;100.00;101437.56;5073051;28;19976;-70
2021/10/11 03:38:51;;;;;;;;;;;;;;;2.09;100.00;101433.84;5073477;28;19964;-70
2021/10/11 03:41:17;;;;;;;;;;;;;;;2.11;100.00;101434.69;5073362;28;20031;-70
2021/10/11 03:43:43;;;;;;;;;;;;;;;2.12;100.00;101439.09;5073110;28;19967;-69
2021/10/11 03:46:10;;;;;;;;;;;;;;;2.17;100.00;101437.13;5073081;28;20032;-69
2021/10/11 03:48:36;;;;;;;;;;;;;;;2.21;100.00;101443.25;5055377;28;19935;-69
2021/10/11 03:51:02;;;;;;;;;;;;;;;2.27;100.00;101439.47;5073136;28;20011;-70
2021/10/11 03:53:29;;;;;;;;;;;;;;;2.27;100.00;101445.75;5080439;28;20106;-69
2021/10/11 03:55:56;;;;;;;;;;;;;;;2.36;100.00;101436.47;5076887;28;20026;-70
2021/10/11 03:58:23;;;;;;;;;;;;;;;2.38;100.00;101431.97;5073062;28;19925;-70
2021/10/11 04:00:49;;;;;;;;;;;;;;;2.40;100.00;101431.91;5077983;28;19924;-69
2021/10/11 04:03:15;;;;;;;;;;;;;;;2.44;100.00;101428.16;5072838;28;19924;-70
2021/10/11 04:05:41;;;;;;;;;;;;;;;2.48;100.00;101432.50;5081661;28;20023;-69
2021/10/11 04:08:12;;;;;;;;;;;;;;;2.47;100.00;101433.41;5092916;28;20014;-73
2021/10/11 04:10:45;;;;;;;;;;;;;;;2.44;100.00;101431.72;5078651;28;19966;-76
2021/10/11 04:13:19;;;;;;;;;;;;;;;2.44;100.00;101430.84;5072750;28;20400;-76
2021/10/11 04:15:45;;;;;;;;;;;;;;;2.51;100.00;101440.41;5073412;28;20016;-77
2021/10/11 04:18:12;;;;;;;;;;;;;;;2.53;100.00;101437.69;5072617;28;19925;-77
2021/10/11 04:20:38;;;;;;;;;;;;;;;2.55;100.00;101427.78;5085659;28;19970;-76
2021/10/11 04:23:04;;;;;;;;;;;;;;;2.55;100.00;101428.66;5092879;28;20022;-75
2021/10/11 04:25:30;;;;;;;;;;;;;;;2.57;100.00;101424.13;5079118;28;20392;-75
2021/10/11 04:27:57;;;;;;;;;;;;;;;2.59;100.00;101421.38;5075029;28;19994;-76
2021/10/11 04:30:24;;;;;;;;;;;;;;;2.61;100.00;101425.75;5092145;28;19934;-75
2021/10/11 04:32:51;;;;;;;;;;;;;;;2.64;100.00;101432.81;5092533;28;20027;-75
2021/10/11 04:35:17;;;;;;;;;;;;;;;2.67;100.00;101435.38;5092586;28;20018;-75
2021/10/11 04:37:43;;;;;;;;;;;;;;;2.71;100.00;101430.78;5092264;28;20022;-75
2021/10/11 04:40:10;;;;;;;;;;;;;;;2.74;100.00;101426.19;5092215;28;20014;-75
2021/10/11 04:42:36;;;;;;;;;;;;;;;2.77;100.00;101420.69;5092305;28;19931;-75
2021/10/11 04:45:03;;;;;;;;;;;;;;;2.80;100.00;101417.88;5092344;28;20412;-75
2021/10/11 04:47:31;;;;;;;;;;;;;;;2.81;100.00;101408.06;5092197;28;20034;-75
2021/10/11 04:49:57;;;;;;;;;;;;;;;2.79;100.00;101408.13;5092011;28;20031;-75
2021/10/11 04:52:23;;;;;;;;;;;;;;;2.78;100.00;101419.78;5092073;28;20454;-75
2021/10/11 04:54:49;;;;;;;;;;;;;;;2.74;100.00;101420.81;5092022;28;20010;-75
2021/10/11 04:57:16;;;;;;;;;;;;;;;2.69;100.00;101417.44;5091783;28;19967;-75
2021/10/11 04:59:42;;;;;;;;;;;;;;;2.66;100.00;101407.69;5073873;28;20341;-75
2021/10/11 05:02:08;;;;;;;;;;;;;;;2.66;100.00;101394.28;5091929;28;19928;-75
2021/10/11 05:04:36;;;;;;;;;;;;;;;2.63;100.00;101401.56;5090496;28;20021;-75
2021/10/11 05:07:02;;;;;;;;;;;;;;;2.61;100.00;101393.59;5090360;28;19935;-76
2021/10/11 05:09:28;;;;;;;;;;;;;;;2.61;100.00;101398.09;5089966;28;19934;-75
2021/10/11 05:11:55;;;;;;;;;;;;;;;2.60;100.00;101396.31;5090470;28;20015;-76
2021/10/11 05:14:21;;;;;;;;;;;;;;;2.58;100.00;101398.16;5090088;28;20015;-76
2021/10/11 05:16:48;;;;;;;;;;;;;;;2.58;100.00;101401.75;5090080;28;20034;-75
2021/10/11 05:19:15;;;;;;;;;;;;;;;2.58;100.00;101392.81;5090937;28;19928;-72
2021/10/11 05:21:42;;;;;;;;;;;;;;;2.60;100.00;101393.66;5091639;28;19924;-72
2021/10/11 05:24:09;;;;;;;;;;;;;;;2.61;100.00;101390.03;5091670;28;20406;-71
2021/10/11 05:26:35;;;;;;;;;;;;;;;2.64;100.00;101389.91;5091315;28;20015;-72
2021/10/11 05:29:03;;;;;;;;;;;;;;;2.64;100.00;101385.41;5091071;28;20018;-72
2021/10/11 05:31:29;;;;;;;;;;;;;;;2.70;100.00;101395.06;5088796;28;19927;-72
2021/10/11 05:33:56;;;;;;;;;;;;;;;2.78;100.00;101394.75;5071199;28;20372;-72
2021/10/11 05:36:22;;;;;;;;;;;;;;;2.80;100.00;101391.06;5071493;28;19924;-72
2021/10/11 05:38:51;;;;;;;;;;;;;;;2.86;100.00;101390.00;5071148;28;20066;-72
2021/10/11 05:41:17;;;;;;;;;;;;;;;2.89;100.00;101391.69;5071336;28;20404;-72
2021/10/11 05:43:43;;;;;;;;;;;;;;;2.93;100.00;101385.25;5071093;28;20020;-72
2021/10/11 05:46:10;;;;;;;;;;;;;;;2.96;100.00;101396.72;5070936;28;19925;-72
2021/10/11 05:48:36;;;;;;;;;;;;;;;3.00;100.00;101397.50;5071360;28;19978;-72
2021/10/11 05:51:02;;;;;;;;;;;;;;;3.05;100.00;101391.94;5071261;28;20090;-72
2021/10/11 05:53:28;;;;;;;;;;;;;;;3.09;100.00;101390.91;5071103;28;19964;-72
2021/10/11 05:55:56;;;;;;;;;;;;;;;3.12;100.00;101394.31;5069380;28;20411;-72
2021/10/11 05:58:22;;;;;;;;;;;;;;;3.16;100.00;101395.94;5071152;28;20348;-73
2021/10/11 06:00:49;;;;;;;;;;;;;;;3.23;100.00;101401.94;5070760;28;20273;-72
2021/10/11 06:03:15;;;;;;;;;;;;;;;3.29;100.00;101403.53;5071292;28;20023;-72
2021/10/11 06:05:42;;;;;;;;;;;;;;;3.39;100.00;101395.97;5070789;28;20164;-72
2021/10/11 06:08:08;;;;;;;;;;;;;;;3.47;100.00;101383.97;5070820;28;20428;-72
2021/10/11 06:10:34;;;;;;;;;;;;;;;3.52;100.00;101384.66;5070933;28;19968;-72
2021/10/11 06:13:02;;;;;;;;;;;;;;;3.57;100.00;101380.91;5070687;28;19970;-72
2021/10/11 06:15:28;;;;;;;;;;;;;;;3.59;100.00;101397.84;5070719;28;20447;-72
2021/10/11 06:17:54;;;;;;;;;;;;;;;3.64;100.00;101395.84;5069194;28;20015;-72
2021/10/11 06:20:21;;;;;;;;;;;;;;;3.71;100.00;101394.63;5067168;28;20035;-72
2021/10/11 06:22:47;;;;;;;;;;;;;;;3.78;100.00;101396.16;5068823;28;19931;-71
2021/10/11 06:25:13;;;;;;;;;;;;;;;3.85;100.00;101394.06;5070063;28;20023;-72
2021/10/11 06:27:40;;;;;;;;;;;;;;;3.93;100.00;101407.16;5069700;28;20027;-72
2021/10/11 06:30:08;;;;;;;;;;;;;;;4.00;100.00;101408.66;5050523;28;20022;-72
2021/10/11 06:32:35;;;;;;;;;;;;;;;4.09;100.00;101405.56;5050434;28;19971;-72
2021/10/11 06:35:01;;;;;;;;;;;;;;;4.21;100.00;101414.03;5050654;28;20118;-72
2021/10/11 06:37:27;;;;;;;;;;;;;;;4.33;100.00;101410.81;5050660;28;19978;-72
2021/10/11 06:39:53;;;;;;;;;;;;;;;4.45;100.00;101414.75;5052387;28;20015;-73
2021/10/11 06:42:20;;;;;;;;;;;;;;;4.59;100.00;101411.47;5054138;28;20439;-71
2021/10/11 06:44:48;;;;;;;;;;;;;;;4.73;100.00;101410.81;5036451;28;19925;-72
2021/10/11 06:47:16;;;;;;;;;;;;;;;4.85;100.00;101419.22;5072205;28;19936;-72
2021/10/11 06:49:45;;;;;;;;;;;;;;;4.99;100.00;101415.00;5073894;28;20366;-72
2021/10/11 06:52:12;;;;;;;;;;;;;;;5.11;100.00;101411.72;5073791;28;19932;-72
2021/10/11 06:54:38;;;;;;;;;;;;;;;5.20;100.00;101413.97;5072334;28;20435;-72
2021/10/11 06:57:04;;;;;;;;;;;;;;;5.29;100.00;101412.69;5073966;28;20362;-72
2021/10/11 06:59:30;;;;;;;;;;;;;;;5.36;100.00;101411.44;5073900;28;19963;-72
2021/10/11 07:01:57;;;;;;;;;;;;;;;5.47;100.00;101410.91;5073030;28;19960;-72
2021/10/11 07:04:24;;;;;;;;;;;;;;;5.53;100.00;101410.63;5073858;28;20349;-70
2021/10/11 07:06:51;;;;;;;;;;;;;;;5.62;100.00;101419.19;5073322;28;19960;-70
2021/10/11 07:09:17;;;;;;;;;;;;;;;5.64;100.00;101409.22;5073805;28;19924;-70
2021/10/11 07:11:43;;;;;;;;;;;;;;;5.64;100.00;101409.22;5073579;28;20015;-70
2021/10/11 07:14:09;;;;;;;;;;;;;;;5.66;100.00;101410.84;5073753;28;19924;-70
2021/10/11 07:16:36;;;;;;;;;;;;;;;5.69;100.00;101412.53;5073580;28;20011;-70
2021/10/11 07:19:02;;;;;;;;;;;;;;;5.74;100.00;101409.63;5073499;28;20003;-69
2021/10/11 07:21:29;;;;;;;;;;;;;;;5.80;100.00;101415.56;5073549;28;20279;-70
2021/10/11 07:23:56;;;;;;;;;;;;;;;5.90;100.00;101418.66;5073501;28;19964;-70
2021/10/11 07:26:22;;;;;;;;;;;;;;;5.95;100.00;101423.84;5055521;28;20011;-70
2021/10/11 07:28:48;;;;;;;;;;;;;;;5.95;100.00;101413.91;5073216;28;20027;-70
2021/10/11 07:31:14;;;;;;;;;;;;;;;5.96;100.00;101422.88;5073338;28;20031;-70
2021/10/11 07:33:41;;;;;;;;;;;;;;;6.02;100.00;101415.38;5073038;28;19924;-70
2021/10/11 07:36:07;;;;;;;;;;;;;;;6.09;100.00;101426.72;5072819;28;20018;-70
2021/10/11 07:38:35;;;;;;;;;;;;;;;6.07;100.00;101425.94;5072800;28;20053;-70
2021/10/11 07:41:01;;;;;;;;;;;;;;;6.02;100.00;101423.47;5072874;28;20001;-70
2021/10/11 07:43:27;;;;;;;;;;;;;;;6.03;100.00;101435.13;5073362;28;20264;-70
2021/10/11 07:45:53;;;;;;;;;;;;;;;6.01;100.00;101437.91;5072942;28;20314;-70
2021/10/11 07:48:20;;;;;;;;;;;;;;;6.01;100.00;101434.31;5072984;28;19924;-70
2021/10/11 07:50:46;;;;;;;;;;;;;;;6.08;100.00;101430.38;5072298;28;20409;-70
2021/10/11 07:53:13;;;;;;;;;;;;;;;6.12;100.00;101423.88;5072695;28;20031;-70
2021/10/11 07:55:42;;;;;;;;;;;;;;;6.11;100.00;101414.03;5071510;28;20316;-69
2021/10/11 07:58:08;;;;;;;;;;;;;;;6.12;100.00;101413.09;5073079;28;19928;-70
2021/10/11 08:00:35;;;;;;;;;;;;;;;6.19;100.00;101422.59;5071368;28;19971;-70
2021/10/11 08:03:01;;;;;;;;;;;;;;;6.23;100.00;101434.09;5072820;28;20105;-70
2021/10/11 08:05:28;;;;;;;;;;;;;;;6.27;100.00;101426.75;5072596;28;20461;-70
2021/10/11 08:07:54;;;;;;;;;;;;;;;6.32;100.00;101435.44;5072478;28;20027;-70
2021/10/11 08:10:20;;;;;;;;;;;;;;;6.42;100.00;101436.72;5072700;28;19975;-70
2021/10/11 08:12:48;;;;;;;;;;;;;;;6.52;100.00;101432.59;5072135;28;20090;-70
2021/10/11 08:15:16;;;;;;;;;;;;;;;6.59;100.00;101434.94;5072186;28;19925;-70
2021/10/11 08:17:43;;;;;;;;;;;;;;;6.78;100.00;101437.53;5072123;28;19954;-70
2021/10/11 08:20:09;;;;;;;;;;;;;;;6.83;100.00;101427.38;5072195;28;19925;-70
2021/10/11 08:22:36;;;;;;;;;;;;;;;6.98;100.00;101428.34;5072065;28;19967;-70
2021/10/11 08:25:02;;;;;;;;;;;;;;;7.10;100.00;101422.28;5072307;28;19929;-76
2021/10/11 08:27:29;;;;;;;;;;;;;;;7.28;100.00;101427.59;5072155;28;20442;-76
2021/10/11 08:29:56;;;;;;;;;;;;;;;7.30;100.00;101433.81;5072247;28;20292;-76
2021/10/11 08:32:23;;;;;;;;;;;;;;;7.40;100.00;101434.16;5071596;28;19986;-76
2021/10/11 08:34:50;;;;;;;;;;;;;;;7.35;100.00;101431.72;5072026;28;19924;-76
2021/10/11 08:37:16;;;;;;;;;;;;;;;7.46;100.00;101433.81;5071864;28;20399;-76
2021/10/11 08:39:43;;;;;;;;;;;;;;;7.54;100.00;101437.78;5072100;28;20379;-76
2021/10/11 08:42:11;;;;;;;;;;;;;;;7.67;100.00;101440.69;5071809;28;19928;-76
2021/10/11 08:44:37;;;;;;;;;;;;;;;7.82;100.00;101433.50;5071910;28;20011;-76
2021/10/11 08:47:05;;;;;;;;;;;;;;;7.98;100.00;101432.63;5070320;28;19982;-76
2021/10/11 08:49:31;;;;;;;;;;;;;;;8.05;100.00;101434.84;5071918;28;20001;-76
2021/10/11 08:51:57;;;;;;;;;;;;;;;8.26;100.00;101439.06;5071513;28;20314;-76
2021/10/11 08:54:24;;;;;;;;;;;;;;;8.45;100.00;101428.00;5070794;28;19924;-76
2021/10/11 08:56:50;;;;;;;;;;;;;;;9.15;100.00;101428.19;5071277;28;20479;-70
2021/10/11 08:59:25;;;;;;;;;;;;;;;10.08;100.00;101426.66;5071863;28;20023;-70
2021/10/11 09:02:00;;;;;;;;;;;;;;;10.52;100.00;101420.88;5071663;28;19990;-70
2021/10/11 09:04:28;;;;;;;;;;;;;;;10.89;100.00;101425.56;5071224;28;19928;-70
2021/10/11 09:07:04;;;;;;;;;;;;;;;11.11;100.00;101424.88;5070235;28;19935;-70
2021/10/11 09:09:31;;;;;;;;;;;;;;;11.09;100.00;101426.84;5071589;28;20371;-70
2021/10/11 09:11:57;;;;;;;;;;;;;;;11.38;100.00;101421.13;5071552;28;20015;-70
2021/10/11 09:14:24;;;;;;;;;;;;;;;11.45;100.00;101418.81;5070170;28;20359;-70
2021/10/11 09:16:56;;;;;;;;;;;;;;;11.14;100.00;101424.63;5071497;28;19924;-70
2021/10/11 09:19:31;;;;;;;;;;;;;;;10.91;100.00;101425.44;5070292;28;20311;-70
2021/10/11 09:21:58;;;;;;;;;;;;;;;10.82;100.00;101425.13;5071041;28;20068;-70
2021/10/11 09:24:25;;;;;;;;;;;;;;;11.14;100.00;101407.47;5071070;28;20015;-71
2021/10/11 09:26:52;;;;;;;;;;;;;;;11.46;100.00;101413.25;5070877;28;20019;-71
2021/10/11 09:29:27;;;;;;;;;;;;;;;11.60;100.00;101408.63;5070923;28;19967;-71
2021/10/11 09:31:54;;;;;;;;;;;;;;;11.84;100.00;101414.09;5070655;28;19956;-72
2021/10/11 09:34:21;;;;;;;;;;;;;;;12.36;100.00;101403.81;5071199;28;19925;-72
2021/10/11 09:36:55;;;;;;;;;;;;;;;12.83;100.00;101411.94;5070904;28;20011;-72
2021/10/11 09:39:24;;;;;;;;;;;;;;;13.37;100.00;101405.75;5071285;28;20019;-72
2021/10/11 09:41:51;;;;;;;;;;;;;;;13.85;100.00;101395.44;5070730;28;19924;-72
2021/10/11 09:44:18;;;;;;;;;;;;;;;14.43;100.00;101395.06;5070913;28;20039;-72
2021/10/11 09:46:45;;;;;;;;;;;;;;;14.50;100.00;101401.69;5071097;28;19931;-72
2021/10/11 09:49:12;;;;;;;;;;;;;;;14.92;100.00;101400.81;5071333;28;20356;-72
2021/10/11 09:51:38;;;;;;;;;;;;;;;14.77;100.00;101399.44;5070993;28;20372;-73
2021/10/11 09:54:04;;;;;;;;;;;;;;;14.79;100.00;101402.88;5071121;28;19925;-72
2021/10/11 09:56:32;;;;;;;;;;;;;;;14.61;100.00;101394.44;5070943;28;20018;-73
2021/10/11 09:59:00;;;;;;;;;;;;;;;14.79;100.00;101392.84;5070977;28;19924;-73
2021/10/11 10:01:27;;;;;;;;;;;;;;;15.08;100.00;101392.09;5070759;28;19929;-73
2021/10/11 10:03:54;;;;;;;;;;;;;;;15.45;100.00;101394.22;5070841;28;20415;-72
2021/10/11 10:06:21;;;;;;;;;;;;;;;15.38;100.00;101388.44;5070762;28;19924;-69
2021/10/11 10:08:48;;;;;;;;;;;;;;;15.50;100.00;101386.47;5070784;28;19972;-72
2021/10/11 10:11:15;;;;;;;;;;;;;;;15.95;100.00;101386.97;5070628;28;20418;-72
2021/10/11 10:13:49;;;;;;;;;;;;;;;15.98;100.00;101382.09;5070437;28;20015;-71
2021/10/11 10:16:17;;;;;;;;;;;;;;;16.09;100.00;101381.06;5073205;28;19978;-71
2021/10/11 10:18:45;;;;;;;;;;;;;;;15.94;100.00;101371.56;5074826;28;19938;-71
2021/10/11 10:21:12;;;;;;;;;;;;;;;15.98;100.00;101379.34;5074738;28;20011;-71
2021/10/11 10:23:39;;;;;;;;;;;;;;;16.16;100.00;101382.22;5074372;28;20387;-71
2021/10/11 10:26:07;;;;;;;;;;;;;;;15.88;100.00;101376.59;5074684;28;19960;-72
2021/10/11 10:28:42;;;;;;;;;;;;;;;15.39;100.00;101383.84;5074739;28;20447;-75
2021/10/11 10:31:10;;;;;;;;;;;;;;;15.67;100.00;101375.81;5074770;28;19928;-75
2021/10/11 10:33:37;;;;;;;;;;;;;;;15.75;100.00;101389.66;5074219;28;19931;-68
2021/10/11 10:36:04;;;;;;;;;;;;;;;15.99;100.00;101370.09;5074663;28;19955;-69
2021/10/11 10:38:31;;;;;;;;;;;;;;;16.51;100.00;101367.00;5074940;28;20102;-68
2021/10/11 10:40:58;;;;;;;;;;;;;;;16.52;100.00;101365.16;5074283;28;19935;-69
2021/10/11 10:43:24;;;;;;;;;;;;;;;16.73;100.00;101359.47;5074281;28;19976;-68
2021/10/11 10:45:52;;;;;;;;;;;;;;;16.23;100.00;101366.06;5074030;28;20431;-69
2021/10/11 10:48:21;;;;;;;;;;;;;;;15.60;100.00;101370.06;5074386;28;20410;-70
2021/10/11 10:50:48;;;;;;;;;;;;;;;15.33;100.00;101362.53;5074189;28;19928;-69
2021/10/11 10:53:15;;;;;;;;;;;;;;;15.21;100.00;101350.84;5073958;28;20019;-69
2021/10/11 10:55:42;;;;;;;;;;;;;;;15.22;100.00;101358.06;5074048;28;19951;-69
2021/10/11 10:58:10;;;;;;;;;;;;;;;15.35;100.00;101355.03;5074058;28;19928;-69
2021/10/11 11:00:37;;;;;;;;;;;;;;;15.56;100.00;101355.78;5074201;28;20409;-68
2021/10/11 11:03:04;;;;;;;;;;;;;;;15.83;100.00;101353.41;5074050;28;20453;-68
2021/10/11 11:05:32;;;;;;;;;;;;;;;15.49;100.00;101348.31;5074312;28;20019;-69
2021/10/11 11:07:58;;;;;;;;;;;;;;;14.90;100.00;101357.22;5073956;28;19928;-71
2021/10/11 11:10:25;;;;;;;;;;;;;;;14.69;100.00;101348.19;5073856;28;20022;-72
2021/10/11 11:12:53;;;;;;;;;;;;;;;14.87;100.00;101341.09;5073815;28;19950;-72
2021/10/11 11:15:25;;;;;;;;;;;;;;;15.12;100.00;101343.47;5072787;28;20042;-76
2021/10/11 11:17:51;;;;;;;;;;;;;;;14.86;100.00;101344.81;5073795;28;20006;-72
2021/10/11 11:20:20;;;;;;;;;;;;;;;14.74;100.00;101335.00;5073956;28;19964;-72
2021/10/11 11:22:48;;;;;;;;;;;;;;;15.22;100.00;101333.44;5073693;28;19924;-70
2021/10/11 11:25:14;;;;;;;;;;;;;;;15.87;100.00;101333.81;5073246;28;19968;-71
2021/10/11 11:27:41;;;;;;;;;;;;;;;15.99;100.00;101336.38;5071960;28;20475;-72
2021/10/11 11:30:09;;;;;;;;;;;;;;;16.68;100.00;101334.38;5073188;28;19925;-72
2021/10/11 11:32:38;;;;;;;;;;;;;;;16.55;100.00;101338.31;5072762;28;20470;-76
2021/10/11 11:35:05;;;;;;;;;;;;;;;16.86;100.00;101339.91;5073430;28;19971;-76
2021/10/11 11:37:32;;;;;;;;;;;;;;;16.62;100.00;101346.81;5073313;28;20395;-76
2021/10/11 11:40:07;;;;;;;;;;;;;;;16.09;100.00;101331.78;5073160;28;19971;-77
2021/10/11 11:42:33;;;;;;;;;;;;;;;16.41;100.00;101336.03;5073229;28;20026;-76
2021/10/11 11:44:59;;;;;;;;;;;;;;;15.89;100.00;101336.41;5072342;28;19974;-76
2021/10/11 11:47:28;;;;;;;;;;;;;;;15.18;100.00;101332.84;5072595;28;20038;-76
2021/10/11 11:49:54;;;;;;;;;;;;;;;15.65;100.00;101334.06;5072590;28;20028;-76
2021/10/11 11:52:21;;;;;;;;;;;;;;;16.37;100.00;101327.25;5072493;28;20015;-75
2021/10/11 11:54:53;;;;;;;;;;;;;;;16.19;100.00;101326.28;5072629;28;20027;-76
2021/10/11 11:57:20;;;;;;;;;;;;;;;15.54;100.00;101321.41;5072319;28;19931;-76
2021/10/11 11:59:48;;;;;;;;;;;;;;;15.03;100.00;101326.03;5072369;28;19925;-76
2021/10/11 12:02:17;;;;;;;;;;;;;;;15.40;100.00;101317.19;5072361;28;19924;-76
2021/10/11 12:04:44;;;;;;;;;;;;;;;15.82;100.00;101319.69;5071872;28;20011;-76
2021/10/11 12:07:11;;;;;;;;;;;;;;;15.96;100.00;101320.25;5072213;28;20367;-76
2021/10/11 12:09:38;;;;;;;;;;;;;;;15.47;100.00;101312.00;5072355;28;19930;-76
2021/10/11 12:12:05;;;;;;;;;;;;;;;15.20;100.00;101316.28;5071937;28;19960;-76
2021/10/11 12:14:33;;;;;;;;;;;;;;;14.91;100.00;101306.13;5072876;28;20395;-76
2021/10/11 12:17:04;;;;;;;;;;;;;;;15.26;100.00;101310.28;5072464;28;19924;-75
2021/10/11 12:19:31;;;;;;;;;;;;;;;16.23;100.00;101312.16;5054983;28;19924;-76
2021/10/11 12:21:58;;;;;;;;;;;;;;;17.24;100.00;101296.88;5072369;28;19929;-75
2021/10/11 12:24:31;;;;;;;;;;;;;;;18.16;100.00;101294.81;5072627;28;20390;-76
2021/10/11 12:26:58;;;;;;;;;;;;;;;19.09;94.46;101296.00;5072539;28;20016;-76
2021/10/11 12:29:26;;;;;;;;;;;;;;;19.44;90.84;101295.91;5072623;28;20435;-76
2021/10/11 12:31:58;;;;;;;;;;;;;;;19.26;88.32;101290.56;5072032;28;19925;-76